Time;durP1;ratioP1;P1;durP2;ratioP2;P2;SDS_P1;SDS_P2;PMS_P1;PMS_P2;Temp;Humidity;BMP_temperature;BMP_pressure;BME280_temperature;BME280_humidity;BME280_pressure;Samples;Min_cycle;Max_cycle;Signal;HPM_P1;HPM_P2
2023/02/07 00:00:10;;;;;;;;;;;;;;;-7.66;62.81;100842.16;4988359;28;20042;-72
2023/02/07 00:02:36;;;;;;;122.53;44.38;;;;;;;-7.68;63.20;100863.56;4988727;28;20008;-72
2023/02/07 00:05:01;;;;;;;118.82;42.35;;;;;;;-7.73;63.57;100857.75;4988613;28;20546;-72
2023/02/07 00:07:27;;;;;;;122.78;43.78;;;;;;;-7.73;63.25;100846.25;4989506;28;20110;-72
2023/02/07 00:09:52;;;;;;;117.93;42.63;;;;;;;-7.71;63.04;100858.47;4989111;28;20019;-72
2023/02/07 00:12:17;;;;;;;115.90;43.15;;;;;;;-7.71;63.67;100863.78;4988646;28;20055;-72
2023/02/07 00:14:43;;;;;;;117.72;43.63;;;;;;;-7.71;63.48;100873.63;4989302;28;20030;-72
2023/02/07 00:17:08;;;;;;;105.18;39.17;;;;;;;-7.71;63.38;100869.13;4989383;28;20026;-72
2023/02/07 00:19:34;;;;;;;108.70;42.05;;;;;;;-7.74;63.52;100855.22;4990666;28;20030;-73
2023/02/07 00:22:00;;;;;;;115.40;40.85;;;;;;;-7.78;63.63;100852.78;4989779;28;20030;-73
2023/02/07 00:24:25;;;;;;;107.50;40.67;;;;;;;-7.79;63.10;100852.91;4993844;28;20474;-72
2023/02/07 00:26:51;;;;;;;99.38;37.08;;;;;;;-7.80;63.07;100848.53;4994081;28;20037;-72
2023/02/07 00:29:18;;;;;;;99.80;37.25;;;;;;;-7.81;63.62;100846.84;4994369;28;20026;-71
2023/02/07 00:31:44;;;;;;;98.13;37.83;;;;;;;-7.80;63.34;100848.53;4990433;28;20038;-73
2023/02/07 00:34:10;;;;;;;92.38;35.63;;;;;;;-7.81;63.39;100839.69;4993699;28;20030;-73
2023/02/07 00:36:36;;;;;;;93.93;35.13;;;;;;;-7.83;63.20;100838.94;4993540;28;20034;-72
2023/02/07 00:39:05;;;;;;;96.65;37.08;;;;;;;-7.84;63.07;100847.06;4994388;28;20056;-73
2023/02/07 00:41:31;;;;;;;89.70;36.40;;;;;;;-7.85;63.32;100859.53;4993996;28;20395;-72
2023/02/07 00:43:56;;;;;;;99.88;38.65;;;;;;;-7.85;63.25;100856.88;4993111;28;20026;-73
2023/02/07 00:46:22;;;;;;;98.13;35.35;;;;;;;-7.86;63.50;100855.16;4992557;28;20019;-72
2023/02/07 00:48:48;;;;;;;93.80;36.35;;;;;;;-7.83;63.54;100859.44;4993781;28;20026;-72
2023/02/07 00:51:13;;;;;;;97.22;36.13;;;;;;;-7.86;63.67;100849.84;4992396;28;20029;-72
2023/02/07 00:53:40;;;;;;;92.22;36.60;;;;;;;-7.87;63.19;100861.47;4993358;28;20037;-72
2023/02/07 00:56:07;;;;;;;90.32;35.63;;;;;;;-7.92;63.49;100866.28;4993606;28;20022;-72
2023/02/07 00:58:33;;;;;;;90.13;35.47;;;;;;;-7.97;63.51;100860.50;4992574;28;20023;-72
2023/02/07 01:00:59;;;;;;;93.38;37.55;;;;;;;-8.00;63.25;100856.22;4993630;28;20546;-72
2023/02/07 01:03:24;;;;;;;83.70;34.78;;;;;;;-8.04;63.54;100851.25;4993274;28;20049;-72
2023/02/07 01:05:50;;;;;;;85.93;34.85;;;;;;;-8.05;63.38;100844.22;4992825;28;20085;-72
2023/02/07 01:08:15;;;;;;;88.93;33.70;;;;;;;-8.04;63.04;100844.09;4993333;28;20041;-72
2023/02/07 01:10:43;;;;;;;89.57;34.13;;;;;;;-8.07;63.73;100833.69;4993414;28;20431;-71
2023/02/07 01:13:09;;;;;;;88.18;34.60;;;;;;;-8.04;63.76;100829.94;4993162;28;20019;-71
2023/02/07 01:15:39;;;;;;;89.32;34.50;;;;;;;-8.04;63.62;100835.28;4992906;28;20121;-72
2023/02/07 01:18:06;;;;;;;82.90;32.53;;;;;;;-8.08;63.57;100824.84;4993262;28;20471;-72
2023/02/07 01:20:31;;;;;;;76.90;30.85;;;;;;;-8.09;63.58;100815.16;4992243;28;20418;-73
2023/02/07 01:22:57;;;;;;;85.22;31.70;;;;;;;-8.08;63.23;100803.56;4992369;28;20044;-72
2023/02/07 01:25:22;;;;;;;85.47;33.25;;;;;;;-8.05;63.57;100805.13;4992564;28;20046;-72
2023/02/07 01:27:48;;;;;;;79.80;32.03;;;;;;;-8.05;63.33;100806.94;4993162;28;20026;-72
2023/02/07 01:30:13;;;;;;;74.63;30.00;;;;;;;-8.09;63.47;100801.84;4993057;28;20038;-72
2023/02/07 01:32:39;;;;;;;74.70;30.50;;;;;;;-8.09;63.59;100803.66;4993030;28;20035;-72
2023/02/07 01:35:05;;;;;;;70.63;27.92;;;;;;;-8.11;63.86;100798.47;4992986;28;20022;-72
2023/02/07 01:37:30;;;;;;;66.38;26.48;;;;;;;-8.11;63.76;100793.13;4992494;28;20043;-72
2023/02/07 01:39:55;;;;;;;64.65;28.52;;;;;;;-8.08;63.91;100789.38;4993058;28;20026;-72
2023/02/07 01:42:23;;;;;;;64.55;27.33;;;;;;;-8.08;63.93;100781.38;4992706;28;20380;-72
2023/02/07 01:44:49;;;;;;;63.70;27.15;;;;;;;-8.07;63.74;100786.59;4991803;28;20038;-72
2023/02/07 01:47:20;;;;;;;65.30;28.15;;;;;;;-8.07;63.83;100788.41;4992983;28;20030;-72
2023/02/07 01:49:48;;;;;;;57.72;24.80;;;;;;;-8.07;63.46;100796.41;4992302;28;20031;-72
2023/02/07 01:52:18;;;;;;;71.50;28.13;;;;;;;-8.08;64.14;100795.56;4992476;28;20058;-72
2023/02/07 01:54:50;;;;;;;84.25;29.95;;;;;;;-8.09;63.91;100798.31;4991507;28;20042;-72
2023/02/07 01:57:18;;;;;;;68.97;28.73;;;;;;;-8.12;63.68;100799.44;4991789;28;20026;-73
2023/02/07 01:59:45;;;;;;;79.28;29.20;;;;;;;-8.15;63.42;100802.31;4993793;28;20038;-72
2023/02/07 02:02:14;;;;;;;70.53;28.00;;;;;;;-8.18;64.00;100805.22;4992118;28;20038;-72
2023/02/07 02:04:40;;;;;;;82.10;30.33;;;;;;;-8.18;63.81;100810.53;4988433;28;20038;-72
2023/02/07 02:07:09;;;;;;;75.65;30.13;;;;;;;-8.19;64.05;100808.84;4988792;28;20042;-72
2023/02/07 02:09:36;;;;;;;74.03;30.67;;;;;;;-8.20;63.78;100804.47;4990856;28;20042;-73
2023/02/07 02:12:04;;;;;;;79.70;30.52;;;;;;;-8.18;63.60;100809.69;4991904;28;20469;-72
2023/02/07 02:14:51;;;;;;;80.85;30.90;;;;;;;-8.20;63.82;100814.28;4988390;28;20077;-72
2023/02/07 02:18:08;;;;;;;73.22;30.48;;;;;;;-8.26;63.91;100816.44;4988732;28;20085;-72
2023/02/07 02:20:53;;;;;;;77.95;30.48;;;;;;;-8.26;63.32;100819.13;4958749;28;20054;-72
2023/02/07 02:23:41;;;;;;;78.32;30.15;;;;;;;-8.32;63.99;100811.59;4988092;28;20481;-72
2023/02/07 02:26:40;;;;;;;78.72;31.65;;;;;;;-8.35;63.71;100813.63;4987953;28;20035;-72
2023/02/07 02:29:52;;;;;;;82.63;32.70;;;;;;;-8.36;64.07;100804.78;4975032;28;20133;-72
2023/02/07 02:33:08;;;;;;;75.20;29.92;;;;;;;-8.35;63.92;100813.63;4990292;28;20454;-71
2023/02/07 02:35:39;;;;;;;71.18;28.83;;;;;;;-8.31;64.13;100825.72;4965346;28;20179;-72
2023/02/07 02:38:46;;;;;;;80.15;30.77;;;;;;;-8.33;63.75;100825.84;4983064;28;20046;-73
2023/02/07 02:41:19;;;;;;;77.53;29.02;;;;;;;-8.31;63.87;100820.41;4979638;28;20141;-72
2023/02/07 02:43:56;;;;;;;71.20;28.77;;;;;;;-8.32;63.95;100810.72;4990358;28;20058;-73
2023/02/07 02:46:30;;;;;;;67.05;27.77;;;;;;;-8.33;63.86;100803.69;4990524;28;20042;-72
2023/02/07 02:48:57;;;;;;;76.00;27.95;;;;;;;-8.29;64.06;100798.03;4990137;28;20475;-72
2023/02/07 02:51:22;;;;;;;77.72;30.80;;;;;;;-8.27;64.09;100788.13;4990844;28;20030;-72
2023/02/07 02:53:55;;;;;;;78.72;28.85;;;;;;;-8.25;63.87;100785.34;4989854;28;20080;-72
2023/02/07 02:56:53;;;;;;;83.07;29.50;;;;;;;-8.19;64.04;100792.03;4990153;28;20030;-72
2023/02/07 02:59:38;;;;;;;95.50;30.10;;;;;;;-8.12;63.95;100790.56;4990149;28;20018;-72
2023/02/07 03:02:16;;;;;;;96.22;32.60;;;;;;;-8.12;64.30;100793.22;4990486;28;20034;-73
2023/02/07 03:05:06;;;;;;;103.85;33.17;;;;;;;-8.12;63.88;100796.75;4989052;28;20038;-72
2023/02/07 03:08:03;;;;;;;106.85;33.88;;;;;;;-8.14;63.79;100801.34;4989814;28;20043;-72
2023/02/07 03:10:55;;;;;;;93.15;33.15;;;;;;;-8.13;63.92;100804.84;4989235;28;20034;-72
2023/02/07 03:13:53;;;;;;;101.32;30.63;;;;;;;-8.15;63.68;100799.66;4988260;28;20491;-72
2023/02/07 03:16:58;;;;;;;102.80;32.15;;;;;;;-8.17;63.69;100803.41;4989162;28;20503;-73
2023/02/07 03:19:23;;;;;;;93.28;30.08;;;;;;;-8.15;63.66;100810.31;4981544;28;20038;-72
2023/02/07 03:21:54;;;;;;;82.10;28.60;;;;;;;-8.16;63.88;100811.28;4990912;28;20026;-72
2023/02/07 03:24:30;;;;;;;78.22;26.67;;;;;;;-8.19;63.70;100800.03;4989406;28;20419;-72
2023/02/07 03:27:00;;;;;;;72.68;27.83;;;;;;;-8.22;64.09;100801.94;4989462;28;20518;-73
2023/02/07 03:29:28;;;;;;;74.68;27.42;;;;;;;-8.22;63.75;100801.09;4989698;28;20030;-73
2023/02/07 03:31:59;;;;;;;76.43;29.13;;;;;;;-8.22;64.11;100806.41;4992990;28;20068;-72
2023/02/07 03:34:34;;;;;;;78.50;28.25;;;;;;;-8.26;63.76;100802.28;4989840;28;20408;-74
2023/02/07 03:37:02;;;;;;;79.30;29.70;;;;;;;-8.29;63.98;100816.69;4990374;28;20037;-72
2023/02/07 03:39:28;;;;;;;84.15;32.08;;;;;;;-8.32;63.74;100824.91;4988294;28;20407;-72
2023/02/07 03:41:57;;;;;;;82.40;31.10;;;;;;;-8.34;63.60;100820.63;4989833;28;20038;-71
2023/02/07 03:44:26;;;;;;;93.32;32.70;;;;;;;-8.38;63.87;100801.41;4989141;28;20109;-72
2023/02/07 03:46:53;;;;;;;87.57;32.63;;;;;;;-8.39;63.47;100807.69;4989069;28;20030;-72
2023/02/07 03:49:18;;;;;;;99.28;35.40;;;;;;;-8.41;63.53;100814.94;4987480;28;20041;-72
2023/02/07 03:51:44;;;;;;;109.72;37.55;;;;;;;-8.45;63.60;100816.13;4990762;28;20734;-72
2023/02/07 03:54:09;;;;;;;106.78;37.28;;;;;;;-8.47;63.93;100810.91;4987043;28;20623;-72
2023/02/07 03:56:35;;;;;;;109.85;38.08;;;;;;;-8.50;63.63;100812.97;4989793;28;20101;-72
2023/02/07 03:59:01;;;;;;;105.32;39.78;;;;;;;-8.51;63.97;100814.81;4986769;28;20522;-72
2023/02/07 04:01:26;;;;;;;115.72;38.10;;;;;;;-8.55;63.38;100816.81;4984385;28;20034;-72
2023/02/07 04:03:52;;;;;;;113.15;39.63;;;;;;;-8.56;63.41;100822.28;4983703;28;20061;-72
2023/02/07 04:06:17;;;;;;;108.32;37.65;;;;;;;-8.60;63.63;100818.16;4987313;28;20022;-72
2023/02/07 04:08:43;;;;;;;101.78;35.47;;;;;;;-8.61;64.04;100819.97;4985330;28;20026;-72
2023/02/07 04:11:08;;;;;;;100.50;34.38;;;;;;;-8.64;63.66;100817.53;4987649;28;21344;-72
2023/02/07 04:13:33;;;;;;;89.63;34.10;;;;;;;-8.66;63.52;100811.47;4986314;28;20030;-72
2023/02/07 04:16:00;;;;;;;85.60;32.55;;;;;;;-8.68;64.01;100818.72;4988130;28;20033;-72
2023/02/07 04:18:26;;;;;;;114.40;38.03;;;;;;;-8.69;63.88;100819.69;4988125;28;20049;-72
2023/02/07 04:20:58;;;;;;;205.73;53.35;;;;;;;-8.68;64.09;100821.38;4987376;28;20486;-72
2023/02/07 04:23:24;;;;;;;163.35;48.05;;;;;;;-8.68;63.67;100832.03;4989371;28;20390;-72
2023/02/07 04:25:49;;;;;;;204.63;54.78;;;;;;;-8.72;63.72;100823.41;4989093;28;20030;-72
2023/02/07 04:28:15;;;;;;;197.77;54.25;;;;;;;-8.74;63.74;100827.97;4990244;28;20037;-73
2023/02/07 04:30:40;;;;;;;214.90;54.00;;;;;;;-8.75;63.83;100831.59;4989807;28;20033;-72
2023/02/07 04:33:05;;;;;;;197.73;52.55;;;;;;;-8.79;63.97;100840.78;4984066;28;20034;-72
2023/02/07 04:35:31;;;;;;;185.63;52.08;;;;;;;-8.82;63.85;100835.69;4984472;28;20050;-72
2023/02/07 04:37:56;;;;;;;178.30;51.22;;;;;;;-8.80;63.82;100840.88;4984619;28;20495;-72
2023/02/07 04:40:21;;;;;;;166.88;47.35;;;;;;;-8.82;63.97;100835.69;4986353;28;20066;-72
2023/02/07 04:42:47;;;;;;;270.48;69.90;;;;;;;-8.80;63.95;100831.13;4989515;28;20050;-72
2023/02/07 04:45:12;;;;;;;272.65;72.63;;;;;;;-8.78;63.67;100833.66;4988059;28;20038;-72
2023/02/07 04:47:37;;;;;;;234.60;63.00;;;;;;;-8.80;64.25;100828.44;4989107;28;20034;-72
2023/02/07 04:50:03;;;;;;;184.50;53.85;;;;;;;-8.82;64.05;100817.91;4988934;28;20034;-72
2023/02/07 04:52:28;;;;;;;173.23;53.53;;;;;;;-8.79;64.20;100819.50;4988636;28;20391;-72
2023/02/07 04:54:54;;;;;;;184.43;52.42;;;;;;;-8.77;64.15;100806.94;4988239;28;20459;-72
2023/02/07 04:57:19;;;;;;;187.95;57.50;;;;;;;-8.73;63.91;100805.72;4989904;28;20034;-72
2023/02/07 04:59:44;;;;;;;187.32;56.78;;;;;;;-8.71;64.03;100811.78;4988623;28;20129;-72
2023/02/07 05:02:10;;;;;;;189.50;59.08;;;;;;;-8.69;64.10;100815.19;4988007;28;20479;-72
2023/02/07 05:04:35;;;;;;;169.55;55.38;;;;;;;-8.67;64.26;100818.59;4987372;28;20034;-72
2023/02/07 05:07:00;;;;;;;173.75;57.33;;;;;;;-8.61;63.93;100819.09;4986724;28;20030;-72
2023/02/07 05:09:26;;;;;;;173.35;58.28;;;;;;;-8.57;64.28;100818.78;4989780;28;20026;-72
2023/02/07 05:11:51;;;;;;;172.10;58.45;;;;;;;-8.50;64.21;100819.16;4992923;28;20053;-72
2023/02/07 05:14:17;;;;;;;178.25;56.75;;;;;;;-8.49;64.28;100815.53;4991468;28;20498;-72
2023/02/07 05:16:42;;;;;;;167.50;57.47;;;;;;;-8.46;64.37;100812.63;4991588;28;20023;-71
2023/02/07 05:19:08;;;;;;;145.90;52.30;;;;;;;-8.42;64.22;100815.88;4992070;28;20026;-71
2023/02/07 05:21:33;;;;;;;164.85;55.33;;;;;;;-8.39;64.67;100832.50;4992523;28;20077;-72
2023/02/07 05:23:58;;;;;;;155.00;54.75;;;;;;;-8.35;64.21;100832.28;4991110;28;20061;-72
2023/02/07 05:26:24;;;;;;;148.35;51.33;;;;;;;-8.34;64.77;100825.94;4991748;28;20045;-72
2023/02/07 05:28:49;;;;;;;138.57;50.28;;;;;;;-8.33;64.04;100830.31;4991630;28;20403;-71
2023/02/07 05:31:14;;;;;;;141.95;49.92;;;;;;;-8.31;64.30;100836.38;4992182;28;20037;-71
2023/02/07 05:33:40;;;;;;;129.57;47.08;;;;;;;-8.31;64.38;100833.72;4988352;28;20034;-72
2023/02/07 05:36:06;;;;;;;131.55;48.15;;;;;;;-8.31;64.17;100834.59;4991239;28;20042;-72
2023/02/07 05:38:31;;;;;;;129.55;48.00;;;;;;;-8.29;64.30;100830.00;4992319;28;20562;-72
2023/02/07 05:40:57;;;;;;;138.98;47.60;;;;;;;-8.31;64.29;100828.38;4989294;28;20088;-71
2023/02/07 05:43:22;;;;;;;115.68;44.63;;;;;;;-8.33;64.45;100831.19;4991893;28;20069;-72
2023/02/07 05:45:48;;;;;;;127.18;44.53;;;;;;;-8.33;64.01;100840.97;4991320;28;20034;-72
2023/02/07 05:48:13;;;;;;;132.80;45.83;;;;;;;-8.34;63.93;100831.28;4991648;28;20034;-72
2023/02/07 05:50:38;;;;;;;131.30;45.75;;;;;;;-8.37;64.04;100835.03;4989790;28;20026;-71
2023/02/07 05:53:05;;;;;;;124.90;45.55;;;;;;;-8.45;64.35;100848.91;4990992;28;20018;-72
2023/02/07 05:55:31;;;;;;;127.90;44.28;;;;;;;-8.48;64.41;100835.84;4991300;28;20522;-72
2023/02/07 05:57:56;;;;;;;120.68;43.28;;;;;;;-8.47;64.01;100844.66;4989733;28;20113;-72
2023/02/07 06:00:22;;;;;;;111.88;40.92;;;;;;;-8.46;64.32;100847.22;4990046;28;20367;-72
2023/02/07 06:02:48;;;;;;;115.40;42.05;;;;;;;-8.45;64.84;100848.91;4989154;28;20034;-72
2023/02/07 06:05:15;;;;;;;115.07;43.40;;;;;;;-8.44;64.44;100855.06;4986703;28;20030;-72
2023/02/07 06:07:42;;;;;;;120.50;45.42;;;;;;;-8.44;64.23;100860.41;4991050;28;20026;-72
2023/02/07 06:10:09;;;;;;;159.25;56.08;;;;;;;-8.47;64.63;100855.31;5006449;28;20022;-72
2023/02/07 06:12:34;;;;;;;167.82;58.72;;;;;;;-8.53;64.07;100857.47;4990779;28;20402;-72
2023/02/07 06:15:00;;;;;;;163.50;59.00;;;;;;;-8.54;64.24;100854.94;4989039;28;20042;-72
2023/02/07 06:17:26;;;;;;;183.70;65.45;;;;;;;-8.55;64.39;100858.56;4990279;28;20109;-72
2023/02/07 06:19:51;;;;;;;213.23;74.22;;;;;;;-8.50;64.71;100860.88;4993774;28;20026;-72
2023/02/07 06:22:17;;;;;;;217.00;73.20;;;;;;;-8.46;64.30;100862.31;4991984;28;20131;-72
2023/02/07 06:24:43;;;;;;;242.15;87.00;;;;;;;-8.42;64.77;100864.66;4992671;28;20076;-71
2023/02/07 06:27:08;;;;;;;272.45;98.40;;;;;;;-8.37;64.53;100866.97;4990714;28;20752;-73
2023/02/07 06:29:34;;;;;;;262.95;93.22;;;;;;;-8.31;64.65;100870.97;4990511;28;20031;-72
2023/02/07 06:31:59;;;;;;;246.23;82.57;;;;;;;-8.27;65.01;100868.00;4990398;28;20026;-72
2023/02/07 06:34:25;;;;;;;248.68;83.30;;;;;;;-8.20;64.99;100878.19;4987132;28;20475;-72
2023/02/07 06:36:50;;;;;;;268.30;86.82;;;;;;;-8.12;65.05;100873.13;4989436;28;20034;-72
2023/02/07 06:39:15;;;;;;;265.95;86.43;;;;;;;-8.04;65.16;100872.56;4989994;28;20046;-72
2023/02/07 06:41:41;;;;;;;280.00;85.88;;;;;;;-7.93;65.49;100872.56;4989814;28;20088;-71
2023/02/07 06:44:06;;;;;;;286.85;86.85;;;;;;;-7.84;65.35;100869.22;4989697;28;20426;-72
2023/02/07 06:46:32;;;;;;;295.88;91.13;;;;;;;-7.73;65.19;100868.41;4993732;28;20109;-71
2023/02/07 06:48:57;;;;;;;290.55;95.20;;;;;;;-7.61;65.63;100871.97;4991272;28;20084;-72
2023/02/07 06:51:23;;;;;;;295.27;97.90;;;;;;;-7.51;65.28;100874.75;4990250;28;21383;-72
2023/02/07 06:53:48;;;;;;;275.85;94.68;;;;;;;-7.42;65.72;100878.50;4984548;28;20022;-71
2023/02/07 06:56:13;;;;;;;320.20;108.85;;;;;;;-7.32;65.65;100871.50;4988178;28;20431;-71
2023/02/07 06:58:39;;;;;;;294.45;106.97;;;;;;;-7.23;65.77;100875.25;4984699;28;20026;-71
2023/02/07 07:01:04;;;;;;;304.90;105.45;;;;;;;-7.13;66.10;100875.41;4987598;28;20039;-71
2023/02/07 07:03:30;;;;;;;301.88;103.68;;;;;;;-7.06;65.39;100873.91;4990007;28;20101;-71
2023/02/07 07:05:56;;;;;;;295.77;102.15;;;;;;;-6.98;65.48;100876.00;4991660;28;20030;-71
2023/02/07 07:08:50;;;;;;;273.17;99.20;;;;;;;-6.90;66.22;100886.88;4991086;28;20034;-71
2023/02/07 07:11:18;;;;;;;241.75;83.28;;;;;;;-6.77;65.64;100895.59;4989522;28;20546;-73
2023/02/07 07:13:53;;;;;;;308.83;98.20;;;;;;;-6.69;65.64;100886.16;4987602;28;20042;-71
2023/02/07 07:16:18;;;;;;;307.10;102.00;;;;;;;-6.61;66.03;100887.22;4989097;28;20036;-75
2023/02/07 07:18:43;;;;;;;311.98;100.38;;;;;;;-6.56;65.78;100894.00;4993517;28;20038;-72
2023/02/07 07:21:09;;;;;;;255.68;86.32;;;;;;;-6.50;65.51;100896.19;4991193;28;20109;-74
2023/02/07 07:23:35;;;;;;;236.20;82.55;;;;;;;-6.42;65.98;100899.06;4987144;28;20113;-73
2023/02/07 07:26:01;;;;;;;235.07;89.90;;;;;;;-6.35;65.96;100908.28;4983181;28;20077;-74
2023/02/07 07:28:26;;;;;;;237.65;94.65;;;;;;;-6.28;65.75;100897.94;4987955;28;20045;-77
2023/02/07 07:30:51;;;;;;;260.83;110.53;;;;;;;-6.16;65.97;100894.25;4988296;28;20097;-75
2023/02/07 07:33:17;;;;;;;263.02;106.47;;;;;;;-6.05;66.07;100895.19;4982427;28;21896;-74
2023/02/07 07:35:42;;;;;;;230.65;83.90;;;;;;;-5.94;65.91;100886.25;4985448;28;20034;-74
2023/02/07 07:38:07;;;;;;;220.80;80.68;;;;;;;-5.85;66.41;100880.13;4988416;28;20038;-74
2023/02/07 07:40:33;;;;;;;215.90;77.43;;;;;;;-5.78;65.80;100885.81;4988345;28;20089;-74
2023/02/07 07:42:58;;;;;;;224.80;79.75;;;;;;;-5.74;66.08;100877.38;4990192;28;20037;-76
2023/02/07 07:45:24;;;;;;;247.45;84.00;;;;;;;-5.68;65.87;100874.19;4991456;28;20145;-75
2023/02/07 07:47:50;;;;;;;272.20;92.90;;;;;;;-5.59;66.04;100874.41;4990080;28;20545;-75
2023/02/07 07:50:15;;;;;;;288.17;96.18;;;;;;;-5.55;66.16;100878.50;4990726;28;20038;-76
2023/02/07 07:52:41;;;;;;;301.52;95.05;;;;;;;-5.52;65.93;100867.56;4990661;28;20685;-75
2023/02/07 07:55:08;;;;;;;283.38;93.00;;;;;;;-5.45;66.12;100870.53;4988491;28;20026;-75
2023/02/07 07:57:33;;;;;;;261.38;86.95;;;;;;;-5.41;66.26;100875.47;4990432;28;20353;-75
2023/02/07 07:59:59;;;;;;;309.52;94.72;;;;;;;-5.34;65.81;100875.81;4990734;28;20034;-75
2023/02/07 08:02:24;;;;;;;294.70;93.78;;;;;;;-5.30;65.73;100871.91;4989501;28;20478;-75
2023/02/07 08:04:50;;;;;;;271.77;90.40;;;;;;;-5.22;66.22;100871.22;4989299;28;20050;-74
2023/02/07 08:07:16;;;;;;;290.00;90.50;;;;;;;-5.17;66.30;100866.31;4986636;28;20022;-77
2023/02/07 08:09:42;;;;;;;296.20;92.50;;;;;;;-5.05;66.17;100874.22;4983552;28;20034;-77
2023/02/07 08:12:07;;;;;;;296.00;96.00;;;;;;;-5.00;66.18;100864.84;4986611;28;20399;-74
2023/02/07 08:14:32;;;;;;;285.67;90.53;;;;;;;-4.94;65.83;100860.75;4989785;28;20034;-74
2023/02/07 08:16:58;;;;;;;291.85;92.07;;;;;;;-4.88;65.96;100864.72;4989630;28;20368;-75
2023/02/07 08:19:23;;;;;;;280.83;92.15;;;;;;;-4.83;66.36;100875.88;4989724;28;20045;-77
2023/02/07 08:21:49;;;;;;;253.73;86.15;;;;;;;-4.77;66.31;100880.69;4989189;28;20023;-76
2023/02/07 08:24:15;;;;;;;238.90;84.22;;;;;;;-4.69;66.38;100871.97;4990497;28;20092;-75
2023/02/07 08:26:40;;;;;;;230.55;81.85;;;;;;;-4.64;66.28;100881.28;4990355;28;20053;-77
2023/02/07 08:29:06;;;;;;;230.05;90.28;;;;;;;-4.57;66.44;100888.78;4989489;28;20405;-74
2023/02/07 08:31:31;;;;;;;236.75;91.20;;;;;;;-4.52;66.54;100884.69;4989359;28;20031;-76
2023/02/07 08:33:57;;;;;;;241.00;89.93;;;;;;;-4.45;66.21;100889.50;4990187;28;20033;-76
2023/02/07 08:36:22;;;;;;;211.63;84.55;;;;;;;-4.43;66.56;100896.41;4989806;28;20042;-76
2023/02/07 08:38:47;;;;;;;218.07;86.00;;;;;;;-4.36;66.41;100886.00;4990323;28;20051;-75
2023/02/07 08:41:13;;;;;;;204.77;80.40;;;;;;;-4.32;66.29;100887.41;4990651;28;20037;-76
2023/02/07 08:43:39;;;;;;;209.57;77.75;;;;;;;-4.28;66.50;100888.81;4991446;28;20034;-75
2023/02/07 08:46:04;;;;;;;200.75;75.05;;;;;;;-4.24;66.04;100895.59;4992469;28;20088;-75
2023/02/07 08:48:30;;;;;;;203.02;75.47;;;;;;;-4.19;66.09;100887.97;4993834;28;20026;-76
2023/02/07 08:50:55;;;;;;;206.82;80.75;;;;;;;-4.18;66.25;100892.34;4993895;28;20026;-76
2023/02/07 08:53:21;;;;;;;204.13;77.22;;;;;;;-4.18;66.20;100889.69;4994005;28;20030;-76
2023/02/07 08:55:47;;;;;;;201.05;75.82;;;;;;;-4.11;66.37;100875.72;4993573;28;20042;-79
2023/02/07 08:58:12;;;;;;;208.05;79.50;;;;;;;-4.07;66.59;100882.50;4993495;28;20049;-76
2023/02/07 09:00:37;;;;;;;210.20;80.00;;;;;;;-4.06;66.28;100885.03;4993420;28;20031;-76
2023/02/07 09:03:03;;;;;;;208.15;76.80;;;;;;;-4.05;65.85;100875.16;4992361;28;20078;-76
2023/02/07 09:05:33;;;;;;;209.55;78.13;;;;;;;-4.02;66.43;100877.56;4992884;28;20034;-77
2023/02/07 09:08:01;;;;;;;187.80;73.23;;;;;;;-3.97;66.01;100879.81;4993456;28;20042;-76
2023/02/07 09:10:27;;;;;;;194.57;73.60;;;;;;;-3.94;66.41;100877.72;4993709;28;20369;-76
2023/02/07 09:12:52;;;;;;;190.60;73.50;;;;;;;-3.89;66.39;100875.44;4993561;28;20129;-76
2023/02/07 09:15:18;;;;;;;171.20;65.53;;;;;;;-3.85;66.32;100876.00;4992936;28;20026;-75
2023/02/07 09:17:43;;;;;;;172.07;61.35;;;;;;;-3.79;66.62;100875.44;4992844;28;20030;-75
2023/02/07 09:20:09;;;;;;;161.88;58.53;;;;;;;-3.76;66.60;100879.66;4993851;28;20025;-77
2023/02/07 09:23:16;;;;;;;149.27;55.40;;;;;;;-3.71;66.67;100877.41;4993422;28;20023;-78
2023/02/07 09:25:29;;;;;;;143.52;55.20;;;;;;;-3.64;66.36;100866.94;4991693;28;20125;-76
2023/02/07 09:27:54;;;;;;;160.38;61.75;;;;;;;-3.56;66.57;100868.91;4991674;28;20035;-74
2023/02/07 09:30:20;;;;;;;205.10;80.35;;;;;;;-3.50;66.55;100871.84;4993526;28;20032;-75
2023/02/07 09:32:46;;;;;;;284.45;106.32;;;;;;;-3.48;66.71;100861.81;4993205;28;20026;-75
2023/02/07 09:35:12;;;;;;;770.08;339.73;;;;;;;-3.42;66.85;100863.06;4993100;28;20093;-76
2023/02/07 09:37:37;;;;;;;621.25;257.25;;;;;;;-3.40;66.33;100865.63;4992794;28;20053;-75
2023/02/07 09:40:03;;;;;;;315.20;108.88;;;;;;;-3.41;66.54;100856.72;4993422;28;20356;-75
2023/02/07 09:42:44;;;;;;;264.25;93.60;;;;;;;-3.38;66.26;100861.78;4992810;28;20050;-75
2023/02/07 09:45:15;;;;;;;207.85;78.95;;;;;;;-3.35;66.48;100861.50;4992912;28;20037;-75
2023/02/07 09:47:43;;;;;;;181.23;68.97;;;;;;;-3.35;66.21;100856.13;4990815;28;20113;-75
2023/02/07 09:50:17;;;;;;;172.70;68.88;;;;;;;-3.33;66.52;100856.00;4992998;28;20104;-75
2023/02/07 09:52:54;;;;;;;167.43;65.50;;;;;;;-3.32;66.74;100855.84;4992818;28;20057;-77
2023/02/07 09:55:23;;;;;;;166.07;62.75;;;;;;;-3.31;66.46;100856.72;4991902;28;20031;-77
2023/02/07 09:57:59;;;;;;;169.57;66.50;;;;;;;-3.28;66.37;100853.72;4992636;28;20030;-76
2023/02/07 10:00:31;;;;;;;168.70;64.43;;;;;;;-3.28;66.38;100856.41;4991769;28;20364;-75
2023/02/07 10:03:05;;;;;;;166.50;65.30;;;;;;;-3.34;66.26;100847.09;4991593;28;20054;-78
2023/02/07 10:05:43;;;;;;;167.35;66.28;;;;;;;-3.34;66.51;100852.47;4992439;28;20045;-78
2023/02/07 10:08:14;;;;;;;169.07;65.00;;;;;;;-3.31;66.50;100840.59;4990737;28;20394;-78
2023/02/07 10:11:03;;;;;;;168.32;68.38;;;;;;;-3.28;66.40;100840.31;4992810;28;20040;-78
2023/02/07 10:13:47;;;;;;;164.82;63.05;;;;;;;-3.21;66.38;100844.06;4991241;28;20534;-76
2023/02/07 10:16:45;;;;;;;152.80;57.67;;;;;;;-3.16;66.44;100839.13;4991527;28;20138;-74
2023/02/07 10:19:48;;;;;;;149.43;56.00;;;;;;;-3.11;66.74;100841.38;4992467;28;20034;-76
2023/02/07 10:22:22;;;;;;;131.82;53.13;;;;;;;-3.04;66.54;100834.41;4991034;28;20037;-76
2023/02/07 10:25:08;;;;;;;144.95;54.88;;;;;;;-2.96;66.71;100832.81;4991623;28;20040;-76
2023/02/07 10:27:43;;;;;;;147.23;57.35;;;;;;;-2.86;66.67;100823.72;4991289;28;20041;-76
2023/02/07 10:30:20;;;;;;;154.27;60.53;;;;;;;-2.76;67.33;100817.44;4992458;28;20479;-77
2023/02/07 10:32:46;;;;;;;165.10;63.63;;;;;;;-2.67;66.36;100807.66;4991894;28;20022;-76
2023/02/07 10:35:19;;;;;;;153.77;61.33;;;;;;;-2.58;66.63;100812.94;4991513;28;20026;-76
2023/02/07 10:37:46;;;;;;;148.73;60.63;;;;;;;-2.50;66.80;100814.03;4991759;28;20054;-76
2023/02/07 10:40:21;;;;;;;142.85;57.67;;;;;;;-2.43;66.67;100812.41;4992092;28;20109;-76
2023/02/07 10:42:57;;;;;;;162.63;64.35;;;;;;;-2.35;66.62;100806.28;4991786;28;20444;-76
2023/02/07 10:45:23;;;;;;;154.02;60.83;;;;;;;-2.29;66.52;100808.34;4991654;28;20113;-77
2023/02/07 10:47:48;;;;;;;161.20;62.55;;;;;;;-2.23;66.89;100801.50;4991661;28;20029;-74
2023/02/07 10:50:19;;;;;;;136.23;58.00;;;;;;;-2.19;66.54;100803.72;4991899;28;20113;-74
2023/02/07 10:53:02;;;;;;;146.90;61.17;;;;;;;-2.15;66.56;100810.47;4990089;28;20026;-75
2023/02/07 10:55:34;;;;;;;140.13;56.28;;;;;;;-2.06;66.69;100807.88;4991419;28;20034;-75
2023/02/07 10:57:59;;;;;;;142.02;58.30;;;;;;;-2.07;66.55;100800.81;4991245;28;20573;-75
2023/02/07 11:00:30;;;;;;;123.78;50.13;;;;;;;-2.01;66.41;100810.94;4991531;28;20026;-74
2023/02/07 11:03:23;;;;;;;124.80;52.60;;;;;;;-1.97;66.66;100812.31;4991520;28;20030;-77
2023/02/07 11:05:58;;;;;;;114.68;47.92;;;;;;;-1.90;66.47;100804.47;4989737;28;20050;-78
2023/02/07 11:08:34;;;;;;;114.45;47.58;;;;;;;-1.87;66.44;100806.84;4990737;28;20045;-75
2023/02/07 11:11:31;;;;;;;116.30;47.35;;;;;;;-1.84;66.16;100810.09;4991284;28;20042;-74
2023/02/07 11:14:03;;;;;;;108.25;42.78;;;;;;;-1.82;66.62;100793.78;4991155;28;20035;-74